Terminal Aerodrome Forecast
Issued by NWS

Home | Current Version | Previous Version | Text Only | Print | Product List | Glossary On
Versions: 1 2 3 4 5 6 7 8 9 10 11 12 13 14 15 16 17 18 19 20 21 22 23 24 25 26 27 28 29
000
FTUS45 KBOI 200228 AAA
TAFJER
TAF AMD
KJER 200228Z 2002/2024 17012KT P6SM FEW080 SCT120
     FM200330 32022G32KT 5SM HZ SCT120 BKN250
     FM200500 10007KT P6SM SCT100
     FM201800 22010KT P6SM SCT080 BKN120=

USA.gov is the U.S. government's official web portal to all federal, state and local government web resources and services.